ARG1482 SABE-SANT
Flight info
| Callsign | ARG1482 |
|---|---|
| Flight time | 1h 48m |
| Altitude | 32000 |
| Route | BIVAM4B BIVAM UW8 ERE UT680 ANGEN ANGEN1U |
| Aircraft | B38M/M-MSDFGHILORVW/SB1 |
Departure
| Time | 2026-04-23 20:25 |
|---|---|
| Airport | Aeroparque Jorge Newbery (SABE) |
Arrival
| Time | 2026-04-23 22:13 |
|---|---|
| Airport | Teniente Benjamín Matienzo International Airport (SANT) |
| Time | Latitude | Longitude | Altitude | Speed | Heading |
|---|---|---|---|---|---|
| 2026-04-23 20:03 | -34.55722 | -58.41407 | 28 ft | 0 kts | 31° |
| 2026-04-23 20:15 | -34.55729 | -58.41412 | 28 ft | 4 kts | 31° |
| 2026-04-23 20:16 | -34.55752 | -58.41424 | 28 ft | 4 kts | 358° |
| 2026-04-23 20:16 | -34.55765 | -58.41413 | 28 ft | 4 kts | 304° |
| 2026-04-23 20:16 | -34.55780 | -58.41388 | 28 ft | 2 kts | 304° |
| 2026-04-23 20:16 | -34.55781 | -58.41386 | 28 ft | 0 kts | 304° |
| 2026-04-23 20:20 | -34.55770 | -58.41404 | 28 ft | 5 kts | 304° |
| 2026-04-23 20:21 | -34.55744 | -58.41454 | 28 ft | 8 kts | 300° |
| 2026-04-23 20:21 | -34.55720 | -58.41528 | 28 ft | 10 kts | 266° |
| 2026-04-23 20:21 | -34.55771 | -58.41588 | 28 ft | 11 kts | 213° |
| 2026-04-23 20:21 | -34.55773 | -58.41665 | 28 ft | 11 kts | 297° |
| 2026-04-23 20:22 | -34.55734 | -58.41757 | 28 ft | 14 kts | 298° |
| 2026-04-23 20:22 | -34.55677 | -58.41862 | 28 ft | 16 kts | 304° |
| 2026-04-23 20:22 | -34.55612 | -58.41979 | 28 ft | 15 kts | 304° |
| 2026-04-23 20:22 | -34.55545 | -58.42093 | 28 ft | 18 kts | 307° |
| 2026-04-23 20:23 | -34.55467 | -58.42218 | 28 ft | 20 kts | 307° |
| 2026-04-23 20:23 | -34.55401 | -58.42324 | 28 ft | 11 kts | 306° |
| 2026-04-23 20:23 | -34.55371 | -58.42395 | 28 ft | 10 kts | 282° |
| 2026-04-23 20:23 | -34.55367 | -58.42485 | 28 ft | 11 kts | 236° |
| 2026-04-23 20:24 | -34.55415 | -58.42492 | 28 ft | 7 kts | 136° |
| 2026-04-23 20:24 | -34.55473 | -58.42389 | 29 ft | 39 kts | 124° |
| 2026-04-23 20:24 | -34.55784 | -58.41830 | 26 ft | 118 kts | 124° |
| 2026-04-23 20:24 | -34.56357 | -58.40806 | 179 ft | 162 kts | 123° |
| 2026-04-23 20:25 | -34.57002 | -58.39636 | 900 ft | 171 kts | 121° |
| 2026-04-23 20:25 | -34.57616 | -58.38305 | 1373 ft | 192 kts | 108° |
| 2026-04-23 20:25 | -34.57685 | -58.36634 | 1796 ft | 209 kts | 73° |
| 2026-04-23 20:25 | -34.56859 | -58.35198 | 2468 ft | 217 kts | 37° |
| 2026-04-23 20:26 | -34.55442 | -58.34288 | 2911 ft | 245 kts | 30° |
| 2026-04-23 20:26 | -34.54462 | -58.33546 | 3360 ft | 255 kts | 34° |
| 2026-04-23 20:26 | -34.52936 | -58.32317 | 4038 ft | 272 kts | 33° |
| 2026-04-23 20:26 | -34.50812 | -58.30654 | 5365 ft | 274 kts | 32° |
| 2026-04-23 20:27 | -34.49180 | -58.29413 | 6300 ft | 279 kts | 27° |
| 2026-04-23 20:27 | -34.47320 | -58.28803 | 7188 ft | 278 kts | 356° |
| 2026-04-23 20:27 | -34.46064 | -58.29068 | 7747 ft | 278 kts | 337° |
| 2026-04-23 20:27 | -34.44396 | -58.30239 | 8624 ft | 278 kts | 323° |
| 2026-04-23 20:28 | -34.42774 | -58.31562 | 9508 ft | 283 kts | 323° |
| 2026-04-23 20:28 | -34.41133 | -58.32898 | 10379 ft | 287 kts | 323° |
| 2026-04-23 20:28 | -34.39427 | -58.34294 | 10880 ft | 305 kts | 323° |
| 2026-04-23 20:28 | -34.37616 | -58.35778 | 11333 ft | 322 kts | 323° |
| 2026-04-23 20:29 | -34.35733 | -58.37323 | 11941 ft | 331 kts | 323° |
| 2026-04-23 20:29 | -34.33822 | -58.38892 | 12806 ft | 333 kts | 323° |
| 2026-04-23 20:29 | -34.31887 | -58.40479 | 13579 ft | 338 kts | 322° |
| 2026-04-23 20:29 | -34.29929 | -58.42085 | 14352 ft | 342 kts | 322° |
| 2026-04-23 20:30 | -34.27979 | -58.43683 | 15093 ft | 344 kts | 322° |
| 2026-04-23 20:30 | -34.23990 | -58.46950 | 16646 ft | 348 kts | 322° |
| 2026-04-23 20:30 | -34.21984 | -58.48591 | 17404 ft | 349 kts | 322° |
| 2026-04-23 20:31 | -34.19963 | -58.50244 | 18162 ft | 351 kts | 321° |
| 2026-04-23 20:31 | -34.17932 | -58.51904 | 18808 ft | 353 kts | 321° |
| 2026-04-23 20:31 | -34.15888 | -58.53573 | 19438 ft | 355 kts | 321° |
| 2026-04-23 20:31 | -34.13835 | -58.55249 | 20064 ft | 356 kts | 321° |
| 2026-04-23 20:32 | -34.11788 | -58.56942 | 20676 ft | 358 kts | 320° |
| 2026-04-23 20:32 | -34.09736 | -58.58666 | 21279 ft | 359 kts | 320° |
| 2026-04-23 20:32 | -34.07678 | -58.60390 | 21879 ft | 361 kts | 320° |
| 2026-04-23 20:32 | -34.05604 | -58.62125 | 22476 ft | 364 kts | 320° |
| 2026-04-23 20:33 | -34.03520 | -58.63868 | 23089 ft | 365 kts | 320° |
| 2026-04-23 20:33 | -34.01427 | -58.65617 | 23696 ft | 367 kts | 320° |
| 2026-04-23 20:33 | -33.99324 | -58.67373 | 24208 ft | 369 kts | 320° |
| 2026-04-23 20:33 | -33.97208 | -58.69138 | 24740 ft | 370 kts | 320° |
| 2026-04-23 20:34 | -33.95109 | -58.70889 | 25269 ft | 371 kts | 320° |
| 2026-04-23 20:34 | -33.92984 | -58.72660 | 25786 ft | 372 kts | 320° |
| 2026-04-23 20:34 | -33.90853 | -58.74434 | 26277 ft | 373 kts | 320° |
| 2026-04-23 20:34 | -33.88721 | -58.76210 | 26784 ft | 373 kts | 320° |
| 2026-04-23 20:35 | -33.86569 | -58.78000 | 27270 ft | 375 kts | 320° |
| 2026-04-23 20:35 | -33.84420 | -58.79787 | 27741 ft | 376 kts | 321° |
| 2026-04-23 20:35 | -33.82290 | -58.81557 | 28214 ft | 377 kts | 321° |
| 2026-04-23 20:35 | -33.80126 | -58.83354 | 28672 ft | 379 kts | 321° |
| 2026-04-23 20:36 | -33.77951 | -58.85158 | 29122 ft | 380 kts | 321° |
| 2026-04-23 20:36 | -33.75770 | -58.86968 | 29565 ft | 382 kts | 321° |
| 2026-04-23 20:36 | -33.73578 | -58.88785 | 29996 ft | 384 kts | 321° |
| 2026-04-23 20:36 | -33.71376 | -58.90607 | 30447 ft | 383 kts | 321° |
| 2026-04-23 20:37 | -33.69191 | -58.92416 | 30975 ft | 379 kts | 321° |
| 2026-04-23 20:37 | -33.67025 | -58.94208 | 31532 ft | 376 kts | 321° |
| 2026-04-23 20:37 | -33.64875 | -58.95985 | 31999 ft | 375 kts | 321° |
| 2026-04-23 20:37 | -33.62733 | -58.97755 | 32137 ft | 372 kts | 321° |
| 2026-04-23 20:38 | -33.58499 | -59.01251 | 32145 ft | 368 kts | 321° |
| 2026-04-23 20:38 | -33.54303 | -59.04710 | 32130 ft | 369 kts | 321° |
| 2026-04-23 20:39 | -33.50069 | -59.08197 | 32144 ft | 369 kts | 321° |
| 2026-04-23 20:39 | -33.45825 | -59.11687 | 32138 ft | 369 kts | 321° |
| 2026-04-23 20:40 | -33.41589 | -59.15167 | 32145 ft | 369 kts | 321° |
| 2026-04-23 20:40 | -33.37346 | -59.18648 | 32139 ft | 369 kts | 321° |
| 2026-04-23 20:41 | -33.33117 | -59.22114 | 32135 ft | 368 kts | 322° |
| 2026-04-23 20:41 | -33.28908 | -59.25559 | 32140 ft | 368 kts | 322° |
| 2026-04-23 20:42 | -33.24687 | -59.29011 | 32142 ft | 368 kts | 322° |
| 2026-04-23 20:42 | -33.20458 | -59.32464 | 32163 ft | 368 kts | 322° |
| 2026-04-23 20:43 | -33.16218 | -59.35922 | 32124 ft | 370 kts | 322° |
| 2026-04-23 20:43 | -33.11974 | -59.39379 | 32139 ft | 369 kts | 322° |
| 2026-04-23 20:44 | -33.07725 | -59.42836 | 32143 ft | 369 kts | 322° |
| 2026-04-23 20:44 | -33.03512 | -59.46261 | 32143 ft | 368 kts | 322° |
| 2026-04-23 20:45 | -32.99269 | -59.49705 | 32140 ft | 369 kts | 322° |
| 2026-04-23 20:45 | -32.95029 | -59.53142 | 32136 ft | 368 kts | 322° |
| 2026-04-23 20:46 | -32.90795 | -59.56571 | 32139 ft | 368 kts | 322° |
| 2026-04-23 20:46 | -32.86590 | -59.59973 | 32141 ft | 368 kts | 322° |
| 2026-04-23 20:47 | -32.82341 | -59.63406 | 32148 ft | 370 kts | 322° |
| 2026-04-23 20:47 | -32.78080 | -59.66844 | 32118 ft | 369 kts | 322° |
| 2026-04-23 20:48 | -32.73832 | -59.70268 | 32136 ft | 368 kts | 322° |
| 2026-04-23 20:48 | -32.69588 | -59.73685 | 32143 ft | 368 kts | 322° |
| 2026-04-23 20:49 | -32.65338 | -59.77103 | 32141 ft | 368 kts | 322° |
| 2026-04-23 20:49 | -32.61121 | -59.80490 | 32137 ft | 368 kts | 322° |
| 2026-04-23 20:50 | -32.56873 | -59.83898 | 32142 ft | 368 kts | 322° |
| 2026-04-23 20:50 | -32.52628 | -59.87299 | 32137 ft | 368 kts | 322° |
| 2026-04-23 20:51 | -32.48401 | -59.90683 | 32141 ft | 370 kts | 322° |
| 2026-04-23 20:51 | -32.44124 | -59.94103 | 32138 ft | 371 kts | 322° |
| 2026-04-23 20:52 | -32.39844 | -59.97519 | 32117 ft | 371 kts | 322° |
| 2026-04-23 20:52 | -32.35573 | -60.00927 | 32136 ft | 370 kts | 322° |
| 2026-04-23 20:53 | -32.31311 | -60.04322 | 32133 ft | 369 kts | 322° |
| 2026-04-23 20:53 | -32.27047 | -60.07716 | 32134 ft | 369 kts | 322° |
| 2026-04-23 20:54 | -32.22779 | -60.11108 | 32128 ft | 369 kts | 322° |
| 2026-04-23 20:54 | -32.18545 | -60.14469 | 32120 ft | 369 kts | 323° |
| 2026-04-23 20:55 | -32.14275 | -60.17856 | 32153 ft | 369 kts | 322° |
| 2026-04-23 20:55 | -32.09994 | -60.21247 | 32135 ft | 371 kts | 322° |
| 2026-04-23 20:56 | -32.05710 | -60.24637 | 32128 ft | 371 kts | 322° |
| 2026-04-23 20:56 | -32.01412 | -60.28034 | 32089 ft | 371 kts | 323° |
| 2026-04-23 20:57 | -31.97151 | -60.31397 | 32127 ft | 371 kts | 323° |
| 2026-04-23 20:57 | -31.92863 | -60.34778 | 32127 ft | 370 kts | 323° |
| 2026-04-23 20:58 | -31.88581 | -60.38151 | 32130 ft | 370 kts | 323° |
| 2026-04-23 20:58 | -31.84292 | -60.41525 | 32131 ft | 370 kts | 323° |
| 2026-04-23 20:59 | -31.80001 | -60.44897 | 32118 ft | 370 kts | 323° |
| 2026-04-23 20:59 | -31.75743 | -60.48240 | 32134 ft | 371 kts | 323° |
| 2026-04-23 21:00 | -31.71444 | -60.51611 | 32125 ft | 371 kts | 323° |
| 2026-04-23 21:00 | -31.67141 | -60.54981 | 32123 ft | 371 kts | 323° |
| 2026-04-23 21:01 | -31.62837 | -60.58348 | 32113 ft | 372 kts | 323° |
| 2026-04-23 21:01 | -31.58534 | -60.61710 | 32110 ft | 372 kts | 323° |
| 2026-04-23 21:02 | -31.54247 | -60.65056 | 32113 ft | 372 kts | 323° |
| 2026-04-23 21:02 | -31.49940 | -60.68414 | 32116 ft | 372 kts | 323° |
| 2026-04-23 21:03 | -31.45630 | -60.71770 | 32115 ft | 372 kts | 323° |
| 2026-04-23 21:03 | -31.41315 | -60.75127 | 32088 ft | 372 kts | 323° |
| 2026-04-23 21:04 | -31.36995 | -60.78484 | 32107 ft | 373 kts | 322° |
| 2026-04-23 21:04 | -31.32672 | -60.81839 | 32107 ft | 373 kts | 322° |
| 2026-04-23 21:05 | -31.28368 | -60.85176 | 32109 ft | 373 kts | 322° |
| 2026-04-23 21:05 | -31.24031 | -60.88534 | 32110 ft | 373 kts | 322° |
| 2026-04-23 21:06 | -31.19701 | -60.91885 | 32078 ft | 373 kts | 322° |
| 2026-04-23 21:06 | -31.15352 | -60.95244 | 32101 ft | 374 kts | 322° |
| 2026-04-23 21:07 | -31.11033 | -60.98578 | 32101 ft | 374 kts | 322° |
| 2026-04-23 21:07 | -31.06685 | -61.01930 | 32101 ft | 374 kts | 322° |
| 2026-04-23 21:08 | -31.02365 | -61.05257 | 32113 ft | 374 kts | 322° |
| 2026-04-23 21:08 | -30.98017 | -61.08602 | 32088 ft | 375 kts | 322° |
| 2026-04-23 21:09 | -30.93657 | -61.11952 | 32095 ft | 375 kts | 322° |
| 2026-04-23 21:09 | -30.89301 | -61.15295 | 32103 ft | 375 kts | 322° |
| 2026-04-23 21:10 | -30.84938 | -61.18640 | 32092 ft | 375 kts | 322° |
| 2026-04-23 21:10 | -30.80609 | -61.21956 | 32100 ft | 375 kts | 322° |
| 2026-04-23 21:11 | -30.76238 | -61.25300 | 32090 ft | 377 kts | 322° |
| 2026-04-23 21:11 | -30.71840 | -61.28661 | 32090 ft | 377 kts | 322° |
| 2026-04-23 21:12 | -30.68193 | -61.31445 | 32091 ft | 377 kts | 322° |
| 2026-04-23 21:12 | -30.63088 | -61.35338 | 32098 ft | 377 kts | 322° |
| 2026-04-23 21:13 | -30.59441 | -61.38116 | 32093 ft | 377 kts | 322° |
| 2026-04-23 21:13 | -30.55058 | -61.41451 | 32092 ft | 377 kts | 322° |
| 2026-04-23 21:14 | -30.50674 | -61.44783 | 32072 ft | 377 kts | 322° |
| 2026-04-23 21:14 | -30.46283 | -61.48117 | 32088 ft | 377 kts | 322° |
| 2026-04-23 21:15 | -30.41894 | -61.51446 | 32073 ft | 377 kts | 322° |
| 2026-04-23 21:15 | -30.37507 | -61.54770 | 32056 ft | 377 kts | 322° |
| 2026-04-23 21:16 | -30.33108 | -61.58098 | 32064 ft | 378 kts | 322° |
| 2026-04-23 21:16 | -30.28735 | -61.61405 | 32089 ft | 378 kts | 322° |
| 2026-04-23 21:17 | -30.24312 | -61.64746 | 32085 ft | 377 kts | 322° |
| 2026-04-23 21:17 | -30.19909 | -61.68068 | 32083 ft | 377 kts | 322° |
| 2026-04-23 21:18 | -30.15535 | -61.71365 | 32057 ft | 378 kts | 322° |
| 2026-04-23 21:18 | -30.11125 | -61.74686 | 32078 ft | 379 kts | 322° |
| 2026-04-23 21:19 | -30.06705 | -61.78010 | 32081 ft | 379 kts | 322° |
| 2026-04-23 21:19 | -30.02281 | -61.81334 | 32080 ft | 379 kts | 322° |
| 2026-04-23 21:20 | -29.97861 | -61.84651 | 32081 ft | 379 kts | 322° |
| 2026-04-23 21:20 | -29.93431 | -61.87973 | 32047 ft | 380 kts | 322° |
| 2026-04-23 21:21 | -29.89002 | -61.91289 | 32075 ft | 382 kts | 322° |
| 2026-04-23 21:21 | -29.84968 | -61.95148 | 32081 ft | 376 kts | 313° |
| 2026-04-23 21:22 | -29.81164 | -61.99288 | 32079 ft | 376 kts | 313° |
| 2026-04-23 21:22 | -29.77378 | -62.03426 | 32075 ft | 375 kts | 313° |
| 2026-04-23 21:23 | -29.73583 | -62.07571 | 32052 ft | 375 kts | 313° |
| 2026-04-23 21:23 | -29.69772 | -62.11730 | 32074 ft | 378 kts | 313° |
| 2026-04-23 21:24 | -29.65965 | -62.15879 | 32076 ft | 377 kts | 313° |
| 2026-04-23 21:24 | -29.62177 | -62.20004 | 32078 ft | 377 kts | 313° |
| 2026-04-23 21:25 | -29.58372 | -62.24145 | 32087 ft | 377 kts | 312° |
| 2026-04-23 21:25 | -29.54569 | -62.28275 | 32076 ft | 376 kts | 312° |
| 2026-04-23 21:26 | -29.50763 | -62.32406 | 32075 ft | 377 kts | 312° |
| 2026-04-23 21:26 | -29.46943 | -62.36547 | 32075 ft | 377 kts | 312° |
| 2026-04-23 21:27 | -29.43120 | -62.40688 | 32071 ft | 377 kts | 312° |
| 2026-04-23 21:27 | -29.39296 | -62.44824 | 32072 ft | 377 kts | 312° |
| 2026-04-23 21:28 | -29.35473 | -62.48955 | 32071 ft | 377 kts | 312° |
| 2026-04-23 21:28 | -29.31654 | -62.53079 | 32069 ft | 378 kts | 312° |
| 2026-04-23 21:29 | -29.27845 | -62.57184 | 32075 ft | 378 kts | 312° |
| 2026-04-23 21:29 | -29.24015 | -62.61310 | 32077 ft | 378 kts | 312° |
| 2026-04-23 21:30 | -29.20180 | -62.65436 | 32076 ft | 378 kts | 312° |
| 2026-04-23 21:30 | -29.16349 | -62.69554 | 32079 ft | 377 kts | 312° |
| 2026-04-23 21:31 | -29.12541 | -62.73642 | 32079 ft | 377 kts | 312° |
| 2026-04-23 21:31 | -29.08701 | -62.77761 | 32070 ft | 379 kts | 311° |
| 2026-04-23 21:32 | -29.04849 | -62.81888 | 32076 ft | 379 kts | 311° |
| 2026-04-23 21:32 | -29.01008 | -62.86000 | 32083 ft | 377 kts | 311° |
| 2026-04-23 21:33 | -28.97205 | -62.90063 | 32079 ft | 376 kts | 311° |
| 2026-04-23 21:33 | -28.93378 | -62.94148 | 32078 ft | 376 kts | 311° |
| 2026-04-23 21:34 | -28.89549 | -62.98233 | 32053 ft | 377 kts | 311° |
| 2026-04-23 21:34 | -28.85705 | -63.02327 | 32074 ft | 378 kts | 311° |
| 2026-04-23 21:35 | -28.81863 | -63.06415 | 32078 ft | 378 kts | 311° |
| 2026-04-23 21:35 | -28.78013 | -63.10509 | 32079 ft | 378 kts | 311° |
| 2026-04-23 21:36 | -28.72269 | -63.16607 | 32076 ft | 376 kts | 311° |
| 2026-04-23 21:37 | -28.68440 | -63.20668 | 32058 ft | 376 kts | 310° |
| 2026-04-23 21:37 | -28.64596 | -63.24738 | 32070 ft | 376 kts | 310° |
| 2026-04-23 21:38 | -28.60785 | -63.28770 | 32082 ft | 376 kts | 310° |
| 2026-04-23 21:38 | -28.56944 | -63.32829 | 32076 ft | 376 kts | 310° |
| 2026-04-23 21:39 | -28.53107 | -63.36881 | 32082 ft | 376 kts | 310° |
| 2026-04-23 21:39 | -28.49269 | -63.40929 | 32082 ft | 376 kts | 310° |
| 2026-04-23 21:40 | -28.45428 | -63.44977 | 32096 ft | 375 kts | 310° |
| 2026-04-23 21:40 | -28.41605 | -63.49001 | 32083 ft | 374 kts | 310° |
| 2026-04-23 21:41 | -28.37794 | -63.53007 | 32085 ft | 374 kts | 310° |
| 2026-04-23 21:41 | -28.33967 | -63.57027 | 32082 ft | 374 kts | 310° |
| 2026-04-23 21:42 | -28.30131 | -63.61052 | 32083 ft | 374 kts | 310° |
| 2026-04-23 21:42 | -28.26327 | -63.65041 | 32063 ft | 374 kts | 310° |
| 2026-04-23 21:43 | -28.22490 | -63.69058 | 32075 ft | 375 kts | 310° |
| 2026-04-23 21:43 | -28.20593 | -63.71042 | 32072 ft | 363 kts | 310° |
| 2026-04-23 21:43 | -28.18776 | -63.72941 | 32077 ft | 347 kts | 310° |
| 2026-04-23 21:43 | -28.17043 | -63.74753 | 32101 ft | 331 kts | 309° |
| 2026-04-23 21:44 | -28.15386 | -63.76483 | 32094 ft | 316 kts | 309° |
| 2026-04-23 21:44 | -28.13769 | -63.78176 | 31927 ft | 322 kts | 309° |
| 2026-04-23 21:44 | -28.12081 | -63.79940 | 31388 ft | 333 kts | 309° |
| 2026-04-23 21:44 | -28.10365 | -63.81730 | 30955 ft | 336 kts | 309° |
| 2026-04-23 21:45 | -28.08632 | -63.83538 | 30516 ft | 340 kts | 310° |
| 2026-04-23 21:45 | -28.06889 | -63.85357 | 30029 ft | 342 kts | 310° |
| 2026-04-23 21:45 | -28.05140 | -63.87188 | 29406 ft | 342 kts | 310° |
| 2026-04-23 21:45 | -28.03399 | -63.89011 | 28903 ft | 339 kts | 310° |
| 2026-04-23 21:46 | -28.01677 | -63.90813 | 28539 ft | 334 kts | 310° |
| 2026-04-23 21:46 | -28.00004 | -63.92563 | 28155 ft | 331 kts | 310° |
| 2026-04-23 21:46 | -27.98317 | -63.94327 | 27740 ft | 328 kts | 310° |
| 2026-04-23 21:46 | -27.96649 | -63.96071 | 27343 ft | 325 kts | 311° |
| 2026-04-23 21:47 | -27.94992 | -63.97802 | 26952 ft | 323 kts | 311° |
| 2026-04-23 21:47 | -27.93343 | -63.99524 | 26570 ft | 321 kts | 311° |
| 2026-04-23 21:47 | -27.91726 | -64.01213 | 26414 ft | 312 kts | 311° |
| 2026-04-23 21:47 | -27.90123 | -64.02887 | 26275 ft | 320 kts | 311° |
| 2026-04-23 21:48 | -27.88466 | -64.04616 | 25969 ft | 326 kts | 312° |
| 2026-04-23 21:48 | -27.86783 | -64.06370 | 25624 ft | 330 kts | 312° |
| 2026-04-23 21:48 | -27.85084 | -64.08139 | 25230 ft | 331 kts | 313° |
| 2026-04-23 21:48 | -27.83392 | -64.09901 | 24828 ft | 330 kts | 313° |
| 2026-04-23 21:49 | -27.81725 | -64.11638 | 24421 ft | 330 kts | 313° |
| 2026-04-23 21:49 | -27.80040 | -64.13391 | 24044 ft | 329 kts | 314° |
| 2026-04-23 21:49 | -27.78354 | -64.15145 | 23660 ft | 329 kts | 314° |
| 2026-04-23 21:49 | -27.76674 | -64.16893 | 23208 ft | 328 kts | 314° |
| 2026-04-23 21:50 | -27.74997 | -64.18637 | 22805 ft | 326 kts | 314° |
| 2026-04-23 21:50 | -27.73332 | -64.20367 | 22424 ft | 324 kts | 314° |
| 2026-04-23 21:50 | -27.71682 | -64.22081 | 22056 ft | 321 kts | 314° |
| 2026-04-23 21:50 | -27.70041 | -64.23785 | 21694 ft | 319 kts | 314° |
| 2026-04-23 21:51 | -27.68415 | -64.25472 | 21337 ft | 316 kts | 314° |
| 2026-04-23 21:51 | -27.66800 | -64.27147 | 20987 ft | 314 kts | 314° |
| 2026-04-23 21:51 | -27.65199 | -64.28806 | 20640 ft | 312 kts | 314° |
| 2026-04-23 21:51 | -27.63625 | -64.30438 | 20304 ft | 311 kts | 314° |
| 2026-04-23 21:52 | -27.62024 | -64.32096 | 19964 ft | 316 kts | 314° |
| 2026-04-23 21:52 | -27.60390 | -64.33789 | 19611 ft | 320 kts | 314° |
| 2026-04-23 21:52 | -27.58744 | -64.35493 | 19258 ft | 321 kts | 314° |
| 2026-04-23 21:52 | -27.57101 | -64.37191 | 18907 ft | 320 kts | 314° |
| 2026-04-23 21:53 | -27.55466 | -64.38882 | 18571 ft | 318 kts | 314° |
| 2026-04-23 21:53 | -27.53832 | -64.40572 | 18208 ft | 317 kts | 314° |
| 2026-04-23 21:53 | -27.52209 | -64.42249 | 17835 ft | 315 kts | 315° |
| 2026-04-23 21:53 | -27.50601 | -64.43909 | 17480 ft | 313 kts | 315° |
| 2026-04-23 21:54 | -27.49016 | -64.45546 | 17137 ft | 311 kts | 315° |
| 2026-04-23 21:54 | -27.47430 | -64.47182 | 16800 ft | 308 kts | 315° |
| 2026-04-23 21:54 | -27.45856 | -64.48806 | 16462 ft | 306 kts | 315° |
| 2026-04-23 21:54 | -27.44289 | -64.50422 | 16139 ft | 304 kts | 315° |
| 2026-04-23 21:55 | -27.42734 | -64.52024 | 15810 ft | 303 kts | 315° |
| 2026-04-23 21:55 | -27.41172 | -64.53634 | 15484 ft | 307 kts | 315° |
| 2026-04-23 21:55 | -27.39588 | -64.55266 | 15141 ft | 311 kts | 315° |
| 2026-04-23 21:55 | -27.38506 | -64.56380 | 14917 ft | 313 kts | 315° |
| 2026-04-23 21:56 | -27.36902 | -64.58031 | 14567 ft | 312 kts | 316° |
| 2026-04-23 21:56 | -27.35322 | -64.59657 | 14255 ft | 310 kts | 316° |
| 2026-04-23 21:56 | -27.33652 | -64.61179 | 13964 ft | 308 kts | 322° |
| 2026-04-23 21:56 | -27.31907 | -64.62599 | 13746 ft | 310 kts | 322° |
| 2026-04-23 21:57 | -27.30165 | -64.64034 | 13549 ft | 311 kts | 322° |
| 2026-04-23 21:57 | -27.28426 | -64.65477 | 13355 ft | 310 kts | 322° |
| 2026-04-23 21:57 | -27.26693 | -64.66920 | 13146 ft | 309 kts | 322° |
| 2026-04-23 21:57 | -27.24993 | -64.68340 | 12946 ft | 308 kts | 322° |
| 2026-04-23 21:58 | -27.23255 | -64.69792 | 12742 ft | 307 kts | 322° |
| 2026-04-23 21:58 | -27.21542 | -64.71223 | 12540 ft | 306 kts | 322° |
| 2026-04-23 21:58 | -27.19854 | -64.72633 | 12343 ft | 306 kts | 322° |
| 2026-04-23 21:58 | -27.18062 | -64.73897 | 12105 ft | 306 kts | 338° |
| 2026-04-23 21:59 | -27.16008 | -64.74465 | 11902 ft | 303 kts | 347° |
| 2026-04-23 21:59 | -27.13938 | -64.74964 | 11729 ft | 304 kts | 347° |
| 2026-04-23 21:59 | -27.11867 | -64.75457 | 11537 ft | 304 kts | 347° |
| 2026-04-23 22:00 | -27.07742 | -64.76422 | 11143 ft | 301 kts | 348° |
| 2026-04-23 22:00 | -27.05691 | -64.76898 | 10947 ft | 300 kts | 348° |
| 2026-04-23 22:00 | -27.03649 | -64.77371 | 10746 ft | 299 kts | 348° |
| 2026-04-23 22:00 | -27.01626 | -64.77839 | 10555 ft | 293 kts | 348° |
| 2026-04-23 22:01 | -26.99650 | -64.78297 | 10366 ft | 287 kts | 348° |
| 2026-04-23 22:01 | -26.97712 | -64.78745 | 10178 ft | 281 kts | 348° |
| 2026-04-23 22:01 | -26.95816 | -64.79183 | 10131 ft | 277 kts | 348° |
| 2026-04-23 22:01 | -26.93921 | -64.79622 | 9996 ft | 279 kts | 348° |
| 2026-04-23 22:02 | -26.92016 | -64.80062 | 9708 ft | 279 kts | 348° |
| 2026-04-23 22:02 | -26.90142 | -64.80494 | 9447 ft | 278 kts | 348° |
| 2026-04-23 22:02 | -26.88229 | -64.80936 | 9239 ft | 276 kts | 348° |
| 2026-04-23 22:02 | -26.86356 | -64.81369 | 9056 ft | 274 kts | 348° |
| 2026-04-23 22:03 | -26.84515 | -64.81794 | 8885 ft | 273 kts | 348° |
| 2026-04-23 22:03 | -26.82653 | -64.82222 | 8706 ft | 273 kts | 348° |
| 2026-04-23 22:03 | -26.80795 | -64.82651 | 8528 ft | 272 kts | 348° |
| 2026-04-23 22:03 | -26.78939 | -64.83079 | 8347 ft | 272 kts | 348° |
| 2026-04-23 22:04 | -26.77081 | -64.83507 | 8172 ft | 272 kts | 348° |
| 2026-04-23 22:04 | -26.75233 | -64.83933 | 8000 ft | 271 kts | 348° |
| 2026-04-23 22:04 | -26.73405 | -64.84354 | 7818 ft | 271 kts | 349° |
| 2026-04-23 22:04 | -26.71558 | -64.84778 | 7640 ft | 270 kts | 348° |
| 2026-04-23 22:05 | -26.69738 | -64.85197 | 7456 ft | 264 kts | 349° |
| 2026-04-23 22:05 | -26.67954 | -64.85608 | 7273 ft | 259 kts | 349° |
| 2026-04-23 22:05 | -26.66209 | -64.86009 | 7099 ft | 252 kts | 349° |
| 2026-04-23 22:05 | -26.64510 | -64.86415 | 6937 ft | 247 kts | 344° |
| 2026-04-23 22:06 | -26.63050 | -64.87342 | 6732 ft | 243 kts | 314° |
| 2026-04-23 22:06 | -26.62186 | -64.88941 | 6564 ft | 240 kts | 286° |
| 2026-04-23 22:06 | -26.61935 | -64.90754 | 6421 ft | 233 kts | 275° |
| 2026-04-23 22:06 | -26.61774 | -64.92563 | 6086 ft | 235 kts | 275° |
| 2026-04-23 22:07 | -26.61623 | -64.94393 | 5760 ft | 237 kts | 274° |
| 2026-04-23 22:07 | -26.61480 | -64.96203 | 5528 ft | 234 kts | 274° |
| 2026-04-23 22:07 | -26.61343 | -64.97998 | 5361 ft | 228 kts | 274° |
| 2026-04-23 22:07 | -26.61215 | -64.99729 | 5242 ft | 220 kts | 274° |
| 2026-04-23 22:08 | -26.61091 | -65.01423 | 5155 ft | 218 kts | 273° |
| 2026-04-23 22:08 | -26.61253 | -65.03078 | 5058 ft | 214 kts | 242° |
| 2026-04-23 22:08 | -26.62252 | -65.04260 | 4999 ft | 213 kts | 208° |
| 2026-04-23 22:08 | -26.63602 | -65.04963 | 4890 ft | 214 kts | 204° |
| 2026-04-23 22:09 | -26.64956 | -65.05664 | 4723 ft | 214 kts | 204° |
| 2026-04-23 22:09 | -26.66304 | -65.06358 | 4583 ft | 211 kts | 204° |
| 2026-04-23 22:09 | -26.67621 | -65.07033 | 4347 ft | 210 kts | 203° |
| 2026-04-23 22:09 | -26.69001 | -65.07557 | 4096 ft | 207 kts | 194° |
| 2026-04-23 22:10 | -26.70330 | -65.07859 | 3861 ft | 185 kts | 190° |
| 2026-04-23 22:10 | -26.71582 | -65.08094 | 3632 ft | 178 kts | 190° |
| 2026-04-23 22:10 | -26.72727 | -65.08311 | 3419 ft | 157 kts | 191° |
| 2026-04-23 22:10 | -26.73783 | -65.08511 | 3221 ft | 151 kts | 191° |
| 2026-04-23 22:11 | -26.74804 | -65.08706 | 3018 ft | 150 kts | 191° |
| 2026-04-23 22:11 | -26.75835 | -65.08903 | 2820 ft | 150 kts | 190° |
| 2026-04-23 22:11 | -26.76870 | -65.09097 | 2606 ft | 151 kts | 190° |
| 2026-04-23 22:11 | -26.77902 | -65.09291 | 2394 ft | 151 kts | 189° |
| 2026-04-23 22:12 | -26.78931 | -65.09493 | 2174 ft | 150 kts | 189° |
| 2026-04-23 22:12 | -26.79949 | -65.09696 | 1982 ft | 149 kts | 189° |
| 2026-04-23 22:12 | -26.80973 | -65.09879 | 1754 ft | 148 kts | 187° |
| 2026-04-23 22:12 | -26.81984 | -65.10074 | 1588 ft | 147 kts | 188° |
| 2026-04-23 22:13 | -26.82972 | -65.10264 | 1486 ft | 135 kts | 190° |
| 2026-04-23 22:13 | -26.83703 | -65.10401 | 1497 ft | 71 kts | 188° |
| 2026-04-23 22:13 | -26.84046 | -65.10475 | 1490 ft | 34 kts | 190° |
| 2026-04-23 22:13 | -26.84182 | -65.10513 | 1484 ft | 10 kts | 228° |
| 2026-04-23 22:14 | -26.84150 | -65.10561 | 1489 ft | 10 kts | 338° |
| 2026-04-23 22:14 | -26.84042 | -65.10603 | 1486 ft | 24 kts | 340° |
| 2026-04-23 22:14 | -26.83904 | -65.10659 | 1488 ft | 22 kts | 340° |
| 2026-04-23 22:14 | -26.83785 | -65.10708 | 1487 ft | 19 kts | 340° |
| 2026-04-23 22:15 | -26.83693 | -65.10727 | 1491 ft | 11 kts | 10° |
| 2026-04-23 22:15 | -26.83606 | -65.10710 | 1491 ft | 12 kts | 10° |
| 2026-04-23 22:15 | -26.83552 | -65.10699 | 1488 ft | 8 kts | 9° |
| 2026-04-23 22:15 | -26.83532 | -65.10728 | 1491 ft | 3 kts | 279° |
| 2026-04-23 22:16 | -26.83529 | -65.10745 | 1492 ft | 2 kts | 279° |
| 2026-04-23 22:16 | -26.83529 | -65.10749 | 1493 ft | 0 kts | 279° |
| 2026-04-23 22:49 | -26.83532 | -65.10724 | 1488 ft | 4 kts | 282° |
| 2026-04-23 22:49 | -26.83541 | -65.10701 | 1484 ft | 4 kts | 330° |
| 2026-04-23 22:49 | -26.83560 | -65.10701 | 1487 ft | 4 kts | 10° |
| 2026-04-23 22:50 | -26.83580 | -65.10705 | 1485 ft | 0 kts | 10° |
| 2026-04-23 22:54 | -26.83558 | -65.10700 | 1488 ft | 7 kts | 10° |
| 2026-04-23 22:54 | -26.83492 | -65.10686 | 1485 ft | 11 kts | 16° |
| 2026-04-23 22:55 | -26.83421 | -65.10633 | 1484 ft | 13 kts | 40° |
| 2026-04-23 22:55 | -26.83346 | -65.10561 | 1489 ft | 15 kts | 40° |
| 2026-04-23 22:55 | -26.83260 | -65.10482 | 1488 ft | 17 kts | 39° |
| 2026-04-23 22:55 | -26.83165 | -65.10393 | 1483 ft | 19 kts | 40° |
| 2026-04-23 22:56 | -26.83056 | -65.10296 | 1483 ft | 21 kts | 30° |
| 2026-04-23 22:56 | -26.82910 | -65.10253 | 1480 ft | 23 kts | 10° |
| 2026-04-23 22:56 | -26.82744 | -65.10219 | 1478 ft | 25 kts | 10° |
| 2026-04-23 22:56 | -26.82573 | -65.10185 | 1483 ft | 25 kts | 10° |
| 2026-04-23 22:57 | -26.82477 | -65.10180 | 1485 ft | 12 kts | 341° |
| 2026-04-23 22:57 | -26.82395 | -65.10194 | 1492 ft | 11 kts | 43° |
| 2026-04-23 22:57 | -26.82413 | -65.10159 | 1487 ft | 7 kts | 174° |
| 2026-04-23 22:57 | -26.82566 | -65.10185 | 1487 ft | 52 kts | 190° |
| 2026-04-23 22:58 | -26.83158 | -65.10302 | 1482 ft | 118 kts | 190° |
| 2026-04-23 22:58 | -26.84137 | -65.10493 | 1558 ft | 160 kts | 188° |
| 2026-04-23 22:58 | -26.85262 | -65.10716 | 2084 ft | 169 kts | 189° |